Time;durP1;ratioP1;P1;durP2;ratioP2;P2;SDS_P1;SDS_P2;PMS_P1;PMS_P2;Temp;Humidity;BMP_temperature;BMP_pressure;BME280_temperature;BME280_humidity;BME280_pressure;Samples;Min_cycle;Max_cycle;Signal;HPM_P1;HPM_P2
2023/02/16 00:00:21;;;;;;;24.25;14.15;;;20.50;99.90;;;;;;5031789;28;20495;-62
2023/02/16 00:02:47;;;;;;;29.33;16.95;;;20.50;99.90;;;;;;5029123;28;20052;-64
2023/02/16 00:05:33;;;;;;;24.67;14.63;;;20.50;99.90;;;;;;5023408;28;20092;-64
2023/02/16 00:08:00;;;;;;;26.75;14.55;;;20.50;99.90;;;;;;5018324;28;20022;-64
2023/02/16 00:10:34;;;;;;;24.83;13.95;;;20.50;99.90;;;;;;5023300;28;20022;-64
2023/02/16 00:15:46;;;;;;;26.20;14.50;;;20.50;99.90;;;;;;5022043;28;20028;-62
2023/02/16 00:18:19;;;;;;;27.55;15.25;;;20.50;99.90;;;;;;5029438;28;20071;-63
2023/02/16 00:20:48;;;;;;;26.02;14.85;;;20.50;99.90;;;;;;5014935;28;20025;-63
2023/02/16 00:23:14;;;;;;;27.05;16.15;;;20.50;99.90;;;;;;5031935;28;20033;-63
2023/02/16 00:25:39;;;;;;;27.05;16.20;;;20.50;99.90;;;;;;5023165;28;20044;-66
2023/02/16 00:28:19;;;;;;;29.00;15.80;;;20.40;99.90;;;;;;5029874;28;20113;-66
2023/02/16 00:30:45;;;;;;;25.10;14.82;;;20.40;99.90;;;;;;5029644;28;20017;-64
2023/02/16 00:33:19;;;;;;;22.65;14.07;;;20.50;99.90;;;;;;5031637;28;20084;-64
2023/02/16 00:35:45;;;;;;;26.50;15.00;;;20.50;99.90;;;;;;5029721;28;20029;-64
2023/02/16 00:38:12;;;;;;;24.98;14.40;;;20.40;99.90;;;;;;5019721;28;20034;-65
2023/02/16 00:40:39;;;;;;;24.67;14.68;;;20.40;99.90;;;;;;5013053;28;20021;-63
2023/02/16 00:43:05;;;;;;;23.23;14.13;;;20.40;99.90;;;;;;5021774;28;20494;-63
2023/02/16 00:45:35;;;;;;;24.13;14.07;;;20.50;99.90;;;;;;5014762;28;20026;-64
2023/02/16 00:48:01;;;;;;;24.77;15.52;;;20.40;99.90;;;;;;5000689;28;20026;-63
2023/02/16 00:50:30;;;;;;;22.77;13.90;;;20.40;99.90;;;;;;5023642;28;20104;-62
2023/02/16 00:52:59;;;;;;;25.95;14.85;;;20.40;99.90;;;;;;5013645;28;20052;-63
2023/02/16 00:55:35;;;;;;;23.85;14.32;;;20.40;99.90;;;;;;5022553;28;20088;-62
2023/02/16 00:58:09;;;;;;;22.67;14.88;;;20.40;99.90;;;;;;5017644;28;20037;-63
2023/02/16 01:00:39;;;;;;;22.92;13.75;;;20.40;99.90;;;;;;5043586;23;20057;-52
2023/02/16 01:03:10;;;;;;;24.70;14.60;;;20.40;99.90;;;;;;5030121;28;20075;-51
2023/02/16 01:05:35;;;;;;;23.25;14.52;;;20.40;99.90;;;;;;5023220;28;20723;-51
2023/02/16 01:13:45;;;;;;;25.58;13.95;;;20.40;99.90;;;;;;5023152;28;20021;-52
2023/02/16 01:16:24;;;;;;;22.45;13.50;;;20.40;99.90;;;;;;5022449;28;20487;-52
2023/02/16 01:18:51;;;;;;;24.38;14.23;;;20.40;99.90;;;;;;5020730;28;20105;-52
2023/02/16 01:21:17;;;;;;;24.40;14.70;;;20.40;99.90;;;;;;5028325;28;20025;-49
2023/02/16 01:23:43;;;;;;;25.50;15.45;;;20.40;99.90;;;;;;5028792;28;20029;-51
2023/02/16 01:26:15;;;;;;;22.17;13.70;;;20.40;99.90;;;;;;4995187;28;20022;-51
2023/02/16 01:28:42;;;;;;;22.45;13.90;;;20.30;99.90;;;;;;5012411;28;20053;-51
2023/02/16 01:31:12;;;;;;;21.57;14.07;;;20.40;99.90;;;;;;5012267;28;20021;-51
2023/02/16 01:33:38;;;;;;;26.42;14.80;;;20.40;99.90;;;;;;5013488;28;20025;-50
2023/02/16 01:36:05;;;;;;;24.95;13.80;;;20.40;99.90;;;;;;5021344;28;20029;-51
2023/02/16 01:38:31;;;;;;;24.13;14.35;;;20.30;99.90;;;;;;5020980;28;20079;-51
2023/02/16 01:41:28;;;;;;;22.60;14.18;;;20.30;99.90;;;;;;5013303;28;20120;-51
2023/02/16 01:44:10;;;;;;;26.30;14.60;;;20.30;99.90;;;;;;5029601;28;20079;-50
2023/02/16 01:46:42;;;;;;;26.25;14.32;;;20.30;99.90;;;;;;5027143;28;20034;-52
2023/02/16 01:49:17;;;;;;;20.83;12.98;;;20.40;99.90;;;;;;5029494;28;20026;-50
2023/02/16 01:51:56;;;;;;;23.55;12.90;;;20.30;99.90;;;;;;5024200;28;20499;-51
2023/02/16 01:54:47;;;;;;;21.48;13.75;;;20.30;99.90;;;;;;5024372;28;20022;-51
2023/02/16 01:57:36;;;;;;;24.38;13.63;;;20.30;99.90;;;;;;5012514;28;20037;-52
2023/02/16 02:00:20;;;;;;;19.80;12.40;;;20.30;99.90;;;;;;5034912;23;20061;-51
2023/02/16 02:02:51;;;;;;;23.15;13.63;;;20.30;99.90;;;;;;5029777;28;20026;-52
2023/02/16 02:05:34;;;;;;;24.25;13.50;;;20.30;99.90;;;;;;5029412;28;20013;-52
2023/02/16 02:08:09;;;;;;;21.48;13.65;;;20.30;99.90;;;;;;5012656;28;20022;-52
2023/02/16 02:11:02;;;;;;;19.58;12.38;;;20.30;99.90;;;;;;5012910;28;20026;-52
2023/02/16 02:13:38;;;;;;;20.67;12.98;;;20.30;99.90;;;;;;5027099;28;20025;-52
2023/02/16 02:16:04;;;;;;;18.95;12.63;;;20.30;99.90;;;;;;5028099;28;20061;-52
2023/02/16 02:18:30;;;;;;;20.30;13.60;;;20.30;99.90;;;;;;5029452;28;20021;-51
2023/02/16 02:24:15;;;;;;;22.33;13.10;;;20.30;99.90;;;;;;5029106;28;20033;-52
2023/02/16 02:26:58;;;;;;;;;;;20.30;99.90;;;;;;5028787;28;20018;-52
2023/02/16 02:29:24;;;;;;;22.42;11.65;;;20.30;99.90;;;;;;5012463;28;19909;-52
2023/02/16 02:32:05;;;;;;;20.42;12.88;;;20.30;99.90;;;;;;5015563;28;20060;-52
2023/02/16 02:35:01;;;;;;;24.13;12.98;;;20.30;99.90;;;;;;5012414;28;20049;-52
2023/02/16 02:38:19;;;;;;;18.42;12.00;;;20.20;99.90;;;;;;5027083;28;20403;-52
2023/02/16 02:41:03;;;;;;;19.98;12.02;;;20.30;99.90;;;;;;4989323;28;20045;-52
2023/02/16 02:43:41;;;;;;;21.30;12.38;;;20.30;99.90;;;;;;5009918;28;20399;-52
2023/02/16 02:46:14;;;;;;;18.25;12.20;;;20.30;99.90;;;;;;5023681;28;20037;-52
2023/02/16 02:48:40;;;;;;;20.52;12.40;;;20.20;99.90;;;;;;5012631;28;20129;-52
2023/02/16 02:51:27;;;;;;;18.08;11.82;;;20.20;99.90;;;;;;5014664;28;20109;-52
2023/02/16 03:02:22;;;;;;;19.35;12.20;;;20.20;99.90;;;;;;4995084;28;20056;-61
2023/02/16 03:04:49;;;;;;;18.23;12.23;;;20.20;99.90;;;;;;4992107;28;20080;-60
2023/02/16 03:07:16;;;;;;;19.67;11.27;;;20.20;99.90;;;;;;4992080;28;20019;-61
2023/02/16 03:09:42;;;;;;;18.83;12.30;;;20.20;99.90;;;;;;4997146;28;20053;-60
2023/02/16 03:14:57;;;;;;;21.55;11.07;;;20.20;99.90;;;;;;4992139;28;20033;-61
2023/02/16 03:31:26;;;;;;;18.85;11.65;;;20.20;99.90;;;;;;5012755;28;20072;-61
2023/02/16 03:33:53;;;;;;;17.63;11.93;;;20.10;99.90;;;;;;5012304;28;20022;-61
2023/02/16 03:36:25;;;;;;;18.17;11.70;;;20.20;99.90;;;;;;5012106;28;20037;-61
2023/02/16 03:38:53;;;;;;;17.92;11.77;;;20.10;99.90;;;;;;5012273;28;20064;-61
2023/02/16 03:41:19;;;;;;;17.55;11.65;;;20.10;99.90;;;;;;5012303;28;20030;-61
2023/02/16 03:43:44;;;;;;;16.77;10.45;;;20.10;99.90;;;;;;5012225;28;20030;-61
2023/02/16 03:46:10;;;;;;;18.83;11.68;;;20.10;99.90;;;;;;5012283;28;20026;-61
2023/02/16 03:48:36;;;;;;;20.38;12.43;;;20.10;99.90;;;;;;5012266;28;20053;-61
2023/02/16 03:51:02;;;;;;;16.48;10.90;;;20.10;99.90;;;;;;5012328;28;20024;-61
2023/02/16 03:53:28;;;;;;;18.70;11.88;;;20.10;99.90;;;;;;5012514;28;20475;-61
2023/02/16 03:55:54;;;;;;;18.40;11.20;;;20.10;99.90;;;;;;4994719;28;20022;-61
2023/02/16 03:58:23;;;;;;;16.42;10.52;;;20.10;99.90;;;;;;5012179;28;20101;-61
2023/02/16 04:00:49;;;;;;;18.63;10.80;;;20.00;99.90;;;;;;5040878;23;20053;-51
2023/02/16 04:03:16;;;;;;;20.65;12.10;;;20.00;99.90;;;;;;5031826;28;20384;-52
2023/02/16 04:05:42;;;;;;;15.20;11.40;;;20.00;99.90;;;;;;5031970;28;20471;-50
2023/02/16 04:08:09;;;;;;;22.33;11.43;;;20.00;99.90;;;;;;5031821;28;20049;-50
2023/02/16 04:10:35;;;;;;;18.10;11.48;;;20.00;99.90;;;;;;5031843;28;20018;-50
2023/02/16 04:13:01;;;;;;;23.77;12.30;;;20.10;99.90;;;;;;5014173;28;20025;-51
2023/02/16 04:15:29;;;;;;;19.33;11.25;;;20.00;99.90;;;;;;5028990;28;20048;-51
2023/02/16 04:17:55;;;;;;;22.40;12.55;;;20.00;99.90;;;;;;5008304;28;20049;-51
2023/02/16 04:20:24;;;;;;;18.40;10.75;;;20.00;99.90;;;;;;5011079;28;20384;-51
2023/02/16 04:22:50;;;;;;;17.73;9.98;;;20.00;99.90;;;;;;5019304;28;20017;-51
2023/02/16 04:25:17;;;;;;;13.93;9.90;;;20.00;99.90;;;;;;5030860;28;20060;-50
2023/02/16 04:27:44;;;;;;;17.27;10.30;;;20.00;99.90;;;;;;5030291;28;20014;-49
2023/02/16 04:30:15;;;;;;;21.40;12.10;;;20.00;99.90;;;;;;5013119;28;20112;-49
2023/02/16 04:32:41;;;;;;;16.77;10.98;;;20.00;99.90;;;;;;5029906;28;20060;-51
2023/02/16 04:35:07;;;;;;;17.77;11.20;;;20.00;99.90;;;;;;5012821;28;20438;-51
2023/02/16 04:37:33;;;;;;;16.85;10.18;;;20.00;99.90;;;;;;5033086;28;20038;-49
2023/02/16 04:39:59;;;;;;;18.15;10.65;;;19.90;99.90;;;;;;5034029;28;20025;-50
2023/02/16 04:42:25;;;;;;;19.35;11.30;;;19.90;99.90;;;;;;5033065;28;20095;-50
2023/02/16 04:44:51;;;;;;;21.92;10.10;;;19.90;99.90;;;;;;5015241;28;20030;-50
2023/02/16 04:47:17;;;;;;;22.85;11.13;;;19.90;99.90;;;;;;5032581;28;20051;-50
2023/02/16 04:49:42;;;;;;;15.18;9.98;;;19.90;99.90;;;;;;5032342;28;20021;-50
2023/02/16 04:52:10;;;;;;;14.65;10.02;;;19.90;99.90;;;;;;5033228;28;20034;-50
2023/02/16 04:54:35;;;;;;;15.55;10.63;;;19.90;99.90;;;;;;5033078;28;20024;-50
2023/02/16 04:57:01;;;;;;;16.73;10.75;;;19.90;99.90;;;;;;5033379;28;20037;-50
2023/02/16 04:59:27;;;;;;;16.42;10.27;;;19.90;99.90;;;;;;5047580;23;20053;-61
2023/02/16 05:01:53;;;;;;;15.38;10.15;;;19.90;99.90;;;;;;5035103;28;20069;-62
2023/02/16 05:04:19;;;;;;;14.15;9.57;;;19.90;99.90;;;;;;5034702;28;20075;-61
2023/02/16 05:06:45;;;;;;;15.73;10.60;;;19.90;99.90;;;;;;5034554;28;20025;-62
2023/02/16 05:09:10;;;;;;;14.20;9.80;;;19.80;99.90;;;;;;5034599;28;20100;-64
2023/02/16 05:14:41;;;;;;;17.70;10.45;;;19.80;99.90;;;;;;5034527;28;20394;-61
2023/02/16 05:17:18;;;;;;;17.40;10.15;;;19.80;99.90;;;;;;5034516;28;20467;-61
2023/02/16 05:19:46;;;;;;;16.95;10.27;;;19.80;99.90;;;;;;5034504;28;20090;-61
2023/02/16 05:22:13;;;;;;;15.70;10.60;;;19.80;99.90;;;;;;5034436;28;20029;-61
2023/02/16 05:24:39;;;;;;;16.00;9.73;;;19.80;99.90;;;;;;5016579;28;20098;-61
2023/02/16 05:27:08;;;;;;;15.15;9.90;;;19.80;99.90;;;;;;5034596;28;20548;-61
2023/02/16 05:29:34;;;;;;;15.90;10.07;;;19.80;99.90;;;;;;5034488;28;20032;-61
2023/02/16 05:32:00;;;;;;;15.75;10.25;;;19.80;99.90;;;;;;5034117;28;20029;-62
2023/02/16 05:34:26;;;;;;;14.43;9.88;;;19.80;99.90;;;;;;5016251;28;20021;-62
2023/02/16 05:36:52;;;;;;;13.57;9.10;;;19.80;99.90;;;;;;5034022;28;20095;-62
2023/02/16 05:39:18;;;;;;;16.67;10.10;;;19.80;99.90;;;;;;5033917;28;20025;-62
2023/02/16 05:41:44;;;;;;;15.43;10.13;;;19.70;99.90;;;;;;5033964;28;20028;-62
2023/02/16 05:44:11;;;;;;;15.82;10.40;;;19.70;99.90;;;;;;5033992;28;20060;-62
2023/02/16 05:46:38;;;;;;;17.65;8.98;;;19.70;99.90;;;;;;5033964;28;20025;-61
2023/02/16 05:49:05;;;;;;;;;;;19.80;99.90;;;;;;5034570;28;20025;-62
2023/02/16 05:51:31;;;;;;;14.07;9.07;;;19.70;99.90;;;;;;5033874;28;19955;-62
2023/02/16 05:53:57;;;;;;;17.65;10.13;;;19.70;99.90;;;;;;5016130;28;20104;-61
2023/02/16 05:56:23;;;;;;;17.30;10.05;;;19.70;99.90;;;;;;5033674;28;20129;-62
2023/02/16 05:58:49;;;;;;;14.43;8.77;;;19.70;99.90;;;;;;5033727;28;20022;-62
2023/02/16 06:01:15;;;;;;;14.55;9.48;;;19.70;99.90;;;;;;5032359;28;20041;-62
2023/02/16 06:03:40;;;;;;;16.25;9.93;;;19.70;99.90;;;;;;5033138;28;20101;-63
2023/02/16 06:06:06;;;;;;;16.83;9.30;;;19.70;99.90;;;;;;5033692;28;20129;-61
2023/02/16 06:08:33;;;;;;;13.32;9.45;;;19.70;99.90;;;;;;5032592;28;20029;-61
2023/02/16 06:10:59;;;;;;;16.05;9.55;;;19.70;99.90;;;;;;5033774;28;20840;-61
2023/02/16 06:13:25;;;;;;;14.43;9.50;;;19.70;99.90;;;;;;5033405;28;20095;-61
2023/02/16 06:15:53;;;;;;;11.90;7.82;;;19.70;99.90;;;;;;5033144;28;20033;-60
2023/02/16 06:18:19;;;;;;;15.68;8.93;;;19.70;99.90;;;;;;5033268;28;20064;-60
2023/02/16 06:20:45;;;;;;;14.18;8.82;;;19.60;99.90;;;;;;5033162;28;20440;-61
2023/02/16 06:23:12;;;;;;;14.88;9.35;;;19.60;99.90;;;;;;5033152;28;20103;-60
2023/02/16 06:25:41;;;;;;;14.45;8.80;;;19.60;99.90;;;;;;5033611;28;20394;-60
2023/02/16 06:28:07;;;;;;;14.75;8.80;;;19.60;99.90;;;;;;5033273;28;20029;-60
2023/02/16 06:30:34;;;;;;;14.05;9.48;;;19.60;99.90;;;;;;5015360;28;20036;-61
2023/02/16 06:33:03;;;;;;;17.70;8.32;;;19.60;99.90;;;;;;5033069;28;20501;-60
2023/02/16 06:35:29;;;;;;;14.23;9.48;;;19.60;99.90;;;;;;5032961;28;20055;-60
2023/02/16 06:37:54;;;;;;;15.18;9.32;;;19.60;99.90;;;;;;5032752;28;20037;-60
2023/02/16 06:40:20;;;;;;;13.63;8.15;;;19.60;99.90;;;;;;5032970;28;20025;-60
2023/02/16 06:42:46;;;;;;;13.05;7.97;;;19.60;99.90;;;;;;5033202;28;20029;-64
2023/02/16 06:45:12;;;;;;;13.10;8.98;;;19.60;99.90;;;;;;5015052;28;20077;-62
2023/02/16 06:47:38;;;;;;;13.40;8.13;;;19.60;99.90;;;;;;5032895;28;20497;-62
2023/02/16 06:50:08;;;;;;;13.77;8.57;;;19.60;99.90;;;;;;5032531;28;20025;-61
2023/02/16 06:52:34;;;;;;;15.50;8.32;;;19.60;99.90;;;;;;5032680;28;20026;-61
2023/02/16 06:55:00;;;;;;;15.80;9.23;;;19.60;99.90;;;;;;5014827;28;20022;-63
2023/02/16 06:57:26;;;;;;;15.07;9.32;;;19.50;99.90;;;;;;5032542;28;20032;-61
2023/02/16 06:59:51;;;;;;;16.58;9.15;;;19.50;99.90;;;;;;5031921;28;20045;-62
2023/02/16 07:02:17;;;;;;;13.45;8.70;;;19.50;99.90;;;;;;5032339;28;20510;-61
2023/02/16 07:04:43;;;;;;;13.40;7.85;;;19.50;99.90;;;;;;5032365;28;20394;-61
2023/02/16 07:07:09;;;;;;;13.45;8.23;;;19.50;99.90;;;;;;5032700;28;20040;-61
2023/02/16 07:09:37;;;;;;;12.65;8.38;;;19.50;99.90;;;;;;5032275;28;20021;-62
2023/02/16 07:12:04;;;;;;;12.25;7.57;;;19.50;99.90;;;;;;5032236;28;20033;-62
2023/02/16 07:14:30;;;;;;;12.82;8.13;;;19.50;99.90;;;;;;5032276;28;20025;-61
2023/02/16 07:16:58;;;;;;;13.85;8.57;;;19.50;99.90;;;;;;5014627;28;20065;-62
2023/02/16 07:19:24;;;;;;;15.60;7.95;;;19.50;99.90;;;;;;5014558;28;20029;-62
2023/02/16 07:21:50;;;;;;;12.07;8.13;;;19.50;99.90;;;;;;5032146;28;20034;-61
2023/02/16 07:24:16;;;;;;;15.07;8.30;;;19.50;99.90;;;;;;5014414;28;20025;-61
2023/02/16 07:26:42;;;;;;;11.80;7.57;;;19.50;99.90;;;;;;5032222;28;20028;-62
2023/02/16 07:29:08;;;;;;;12.02;8.05;;;19.50;99.90;;;;;;5032303;28;20105;-62
2023/02/16 07:31:33;;;;;;;14.80;9.35;;;19.50;99.90;;;;;;5031837;28;20057;-62
2023/02/16 07:33:59;;;;;;;10.40;7.85;;;19.50;99.90;;;;;;5032136;28;20052;-62
2023/02/16 07:36:25;;;;;;;13.63;8.07;;;19.50;99.90;;;;;;5014021;28;20107;-62
2023/02/16 07:38:52;;;;;;;13.30;7.85;;;19.50;99.90;;;;;;5032052;28;20029;-62
2023/02/16 07:41:19;;;;;;;14.80;8.32;;;19.50;99.90;;;;;;5032174;28;20108;-62
2023/02/16 07:43:46;;;;;;;13.20;8.13;;;19.50;99.90;;;;;;5014700;28;20026;-62
2023/02/16 07:46:11;;;;;;;13.35;8.30;;;19.50;99.90;;;;;;5029348;28;20045;-62
2023/02/16 07:48:37;;;;;;;12.45;8.15;;;19.50;99.90;;;;;;5030882;28;20413;-63
2023/02/16 07:51:03;;;;;;;12.45;8.18;;;19.50;99.90;;;;;;5029809;28;20029;-62
2023/02/16 07:53:29;;;;;;;14.38;8.93;;;19.50;99.90;;;;;;5031185;28;20026;-63
2023/02/16 07:55:55;;;;;;;11.43;7.55;;;19.50;99.90;;;;;;5031797;28;20026;-62
2023/02/16 07:58:27;;;;;;;14.85;7.85;;;19.50;99.90;;;;;;5031802;28;20503;-62
2023/02/16 08:01:05;;;;;;;11.73;7.57;;;19.50;99.90;;;;;;5031580;28;20587;-62
2023/02/16 08:03:30;;;;;;;12.60;8.02;;;19.50;99.90;;;;;;5031881;28;20037;-63
2023/02/16 08:06:00;;;;;;;15.07;8.98;;;19.50;99.90;;;;;;5031883;28;20034;-62
2023/02/16 08:08:26;;;;;;;12.75;8.13;;;19.50;99.90;;;;;;5031783;28;20028;-63
2023/02/16 08:10:51;;;;;;;10.82;8.20;;;19.50;99.90;;;;;;5032086;28;20018;-62
2023/02/16 08:13:17;;;;;;;14.23;8.38;;;19.60;99.90;;;;;;5035561;28;20498;-61
2023/02/16 08:15:43;;;;;;;14.32;7.95;;;19.60;99.90;;;;;;5035599;28;20018;-62
2023/02/16 08:18:10;;;;;;;12.45;7.50;;;19.50;99.90;;;;;;5035198;28;20034;-62
2023/02/16 08:20:36;;;;;;;11.95;7.45;;;19.50;99.90;;;;;;5035295;28;20497;-62
2023/02/16 08:23:01;;;;;;;11.18;8.65;;;19.60;99.90;;;;;;5035484;28;20033;-61
2023/02/16 08:25:28;;;;;;;12.23;7.97;;;19.60;99.90;;;;;;5035303;28;20022;-62
2023/02/16 08:27:54;;;;;;;14.82;8.27;;;19.60;99.90;;;;;;5035354;28;20017;-62
2023/02/16 08:30:23;;;;;;;11.70;7.88;;;19.60;99.90;;;;;;5035354;28;20463;-60
2023/02/16 08:32:50;;;;;;;14.98;8.88;;;19.70;99.90;;;;;;5035308;28;20478;-59
2023/02/16 08:35:17;;;;;;;12.27;7.40;;;19.70;99.90;;;;;;5035308;28;20025;-59
2023/02/16 08:37:43;;;;;;;13.95;8.40;;;19.70;99.90;;;;;;5035239;28;20029;-61
2023/02/16 08:40:09;;;;;;;12.07;8.20;;;19.70;99.90;;;;;;5035079;28;20408;-60
2023/02/16 08:42:36;;;;;;;15.57;8.23;;;19.70;99.90;;;;;;5034978;28;20029;-61
2023/02/16 08:45:03;;;;;;;11.68;7.78;;;19.70;99.90;;;;;;5035134;28;20032;-60
2023/02/16 08:47:29;;;;;;;10.38;7.57;;;19.70;99.90;;;;;;5017417;28;20049;-61
2023/02/16 08:49:55;;;;;;;15.90;8.40;;;19.70;99.90;;;;;;5034796;28;20029;-61
2023/02/16 08:52:21;;;;;;;12.90;7.72;;;19.80;99.90;;;;;;5034819;28;20026;-61
2023/02/16 08:54:47;;;;;;;11.90;7.78;;;19.80;99.90;;;;;;5034919;28;20493;-61
2023/02/16 08:57:13;;;;;;;11.45;7.13;;;19.80;99.90;;;;;;5034791;28;20446;-61
2023/02/16 08:59:38;;;;;;;11.80;7.45;;;19.80;99.90;;;;;;5034585;28;20041;-61
2023/02/16 09:02:05;;;;;;;13.52;8.38;;;19.80;99.90;;;;;;5034641;28;20398;-60
2023/02/16 09:04:31;;;;;;;12.07;7.95;;;19.80;99.90;;;;;;5017078;28;20105;-61
2023/02/16 09:06:57;;;;;;;13.93;9.00;;;19.80;99.90;;;;;;5034725;28;20471;-61
2023/02/16 09:09:23;;;;;;;13.73;8.60;;;19.90;99.90;;;;;;5034370;28;20430;-61
2023/02/16 09:11:49;;;;;;;15.30;7.55;;;19.90;99.90;;;;;;5034482;28;20060;-62
2023/02/16 09:14:17;;;;;;;12.80;7.90;;;19.90;99.90;;;;;;5034816;28;20025;-60
2023/02/16 09:16:44;;;;;;;13.50;8.40;;;19.90;99.90;;;;;;5034706;28;20037;-60
2023/02/16 09:19:16;;;;;;;12.90;8.23;;;19.90;99.90;;;;;;5034422;28;20060;-61
2023/02/16 09:21:43;;;;;;;11.55;7.45;;;19.90;99.90;;;;;;5033899;28;20029;-61
2023/02/16 09:24:10;;;;;;;12.73;7.85;;;20.00;99.90;;;;;;5034237;28;20018;-61
2023/02/16 09:26:40;;;;;;;13.95;8.10;;;20.00;99.90;;;;;;5034308;28;20026;-62
2023/02/16 09:29:06;;;;;;;14.90;8.60;;;20.00;99.90;;;;;;5034014;28;20033;-61
2023/02/16 09:31:34;;;;;;;14.40;8.73;;;20.00;99.90;;;;;;5033904;28;20028;-61
2023/02/16 09:34:03;;;;;;;13.60;8.18;;;20.00;99.90;;;;;;5034131;28;20021;-62
2023/02/16 09:36:29;;;;;;;13.50;7.78;;;20.00;99.90;;;;;;5034006;28;20032;-63
2023/02/16 09:38:55;;;;;;;13.70;7.85;;;20.10;99.90;;;;;;5033941;28;20463;-63
2023/02/16 09:41:39;;;;;;;11.77;7.38;;;20.10;99.90;;;;;;5033957;28;20108;-61
2023/02/16 09:44:16;;;;;;;14.88;8.23;;;20.10;99.90;;;;;;5016276;28;20410;-61
2023/02/16 09:46:42;;;;;;;15.13;8.55;;;20.20;99.90;;;;;;5033790;28;20100;-61
2023/02/16 09:49:24;;;;;;;15.95;8.50;;;20.20;99.90;;;;;;5033796;28;20100;-61
2023/02/16 09:52:10;;;;;;;13.32;8.10;;;20.20;99.90;;;;;;5033855;28;20021;-63
2023/02/16 09:54:56;;;;;;;17.65;8.20;;;20.30;99.90;;;;;;5016221;28;20022;-62
2023/02/16 09:58:00;;;;;;;21.80;7.80;;;20.30;99.90;;;;;;5033441;28;20040;-60
2023/02/16 10:01:04;;;;;;;16.60;7.88;;;20.30;99.90;;;;;;5033383;28;20459;-61
2023/02/16 10:03:59;;;;;;;12.82;8.10;;;20.40;99.90;;;;;;4963247;28;20073;-64
2023/02/16 10:06:43;;;;;;;11.77;7.18;;;20.40;99.90;;;;;;5033109;28;20391;-62
2023/02/16 10:09:15;;;;;;;14.73;7.65;;;20.50;99.90;;;;;;5030312;28;20033;-62
2023/02/16 10:12:09;;;;;;;16.77;7.05;;;20.50;99.90;;;;;;5032862;28;20103;-64
2023/02/16 10:15:04;;;;;;;10.77;7.32;;;20.50;99.90;;;;;;5028171;28;20096;-61
2023/02/16 10:17:37;;;;;;;25.95;15.55;;;20.50;99.90;;;;;;5011746;28;20763;-60
2023/02/16 10:20:12;;;;;;;29.90;18.65;;;20.60;99.90;;;;;;5015573;28;20033;-62
2023/02/16 10:22:50;;;;;;;21.02;12.25;;;20.60;99.90;;;;;;5017788;28;20407;-62
2023/02/16 10:25:53;;;;;;;19.23;10.85;;;20.70;99.90;;;;;;5028494;28;20144;-64
2023/02/16 10:28:51;;;;;;;27.88;10.77;;;20.70;99.90;;;;;;5015628;28;20105;-65
2023/02/16 10:31:29;;;;;;;16.77;10.35;;;20.80;99.90;;;;;;5025036;28;20021;-62
2023/02/16 10:34:17;;;;;;;23.60;11.13;;;20.80;99.90;;;;;;5021379;28;20029;-62
2023/02/16 10:36:48;;;;;;;22.90;11.43;;;20.90;99.90;;;;;;5016109;28;20046;-63
2023/02/16 10:39:18;;;;;;;17.98;10.40;;;20.90;99.90;;;;;;5015101;28;20030;-63
2023/02/16 10:41:51;;;;;;;16.13;10.20;;;21.00;99.90;;;;;;5009534;28;20067;-62
2023/02/16 10:44:28;;;;;;;25.55;10.85;;;21.00;99.90;;;;;;5027195;28;20025;-61
2023/02/16 10:47:05;;;;;;;18.02;9.80;;;21.00;99.90;;;;;;5014301;28;20026;-61
2023/02/16 10:49:34;;;;;;;16.65;10.05;;;21.00;99.90;;;;;;5011868;28;20105;-61
2023/02/16 10:52:01;;;;;;;18.90;10.65;;;21.10;99.90;;;;;;5026489;28;20513;-63
2023/02/16 10:54:31;;;;;;;15.65;9.63;;;21.20;99.90;;;;;;5028556;28;20029;-62
2023/02/16 10:57:21;;;;;;;24.63;9.75;;;21.20;99.90;;;;;;5026229;28;20041;-62
2023/02/16 10:59:47;;;;;;;16.40;9.57;;;21.20;99.90;;;;;;5011306;28;20050;-62
2023/02/16 11:02:22;;;;;;;16.17;9.48;;;21.30;99.90;;;;;;5022705;28;20075;-62
2023/02/16 11:04:51;;;;;;;13.30;7.90;;;21.30;99.90;;;;;;5028143;28;20024;-62
2023/02/16 11:07:23;;;;;;;16.70;9.55;;;21.40;99.90;;;;;;5027748;28;20038;-63
2023/02/16 11:09:54;;;;;;;15.52;9.38;;;21.40;99.90;;;;;;5015092;28;20105;-65
2023/02/16 11:12:25;;;;;;;16.98;9.20;;;21.40;99.90;;;;;;5026974;28;20435;-63
2023/02/16 11:14:58;;;;;;;14.82;8.80;;;21.50;99.90;;;;;;5013605;28;20018;-62
2023/02/16 11:17:25;;;;;;;13.05;8.48;;;21.50;99.90;;;;;;5013920;28;20069;-64
2023/02/16 11:19:57;;;;;;;16.98;8.95;;;21.50;99.90;;;;;;5025525;28;20040;-62
2023/02/16 11:22:50;;;;;;;13.20;7.93;;;21.60;99.90;;;;;;5011071;28;20025;-62
2023/02/16 11:25:26;;;;;;;21.58;7.90;;;21.60;99.90;;;;;;5025268;28;20033;-63
2023/02/16 11:27:58;;;;;;;15.02;8.40;;;21.60;99.90;;;;;;5010008;28;20033;-63
2023/02/16 11:30:33;;;;;;;14.82;7.97;;;21.70;99.90;;;;;;5011873;28;20439;-64
2023/02/16 11:33:17;;;;;;;14.80;7.97;;;21.70;99.90;;;;;;5010219;28;20032;-62
2023/02/16 11:35:44;;;;;;;16.95;8.25;;;21.70;99.90;;;;;;5011538;28;20033;-64
2023/02/16 11:38:30;;;;;;;12.57;7.80;;;21.80;99.90;;;;;;5012392;28;20159;-63
2023/02/16 11:40:58;;;;;;;18.95;9.60;;;21.80;99.90;;;;;;5017410;28;20430;-63
2023/02/16 11:43:27;;;;;;;13.45;7.35;;;21.80;99.90;;;;;;5011468;28;20065;-64
2023/02/16 11:46:04;;;;;;;13.25;8.20;;;21.90;99.90;;;;;;5013629;28;20026;-64
2023/02/16 11:48:31;;;;;;;14.03;8.37;;;21.90;99.90;;;;;;5027738;28;20387;-64
2023/02/16 11:51:03;;;;;;;14.68;8.40;;;22.00;99.90;;;;;;5015552;28;20026;-64
2023/02/16 11:53:32;;;;;;;14.18;7.93;;;22.00;99.90;;;;;;5015200;28;20538;-64
2023/02/16 11:56:20;;;;;;;13.93;8.02;;;22.00;99.90;;;;;;5023663;28;20060;-62
2023/02/16 11:59:02;;;;;;;14.93;7.28;;;22.00;99.90;;;;;;5018875;28;20022;-63
2023/02/16 12:02:05;;;;;;;16.70;7.70;;;22.10;99.90;;;;;;5030953;28;20511;-64
2023/02/16 12:04:56;;;;;;;14.20;7.75;;;22.20;99.90;;;;;;5001021;28;20059;-65
2023/02/16 12:07:56;;;;;;;14.07;7.53;;;22.20;99.90;;;;;;5026763;28;20068;-64
2023/02/16 12:10:57;;;;;;;16.30;7.85;;;22.20;99.90;;;;;;5021243;28;20018;-65
2023/02/16 12:13:35;;;;;;;12.27;7.00;;;22.30;99.90;;;;;;5014641;28;20046;-64
2023/02/16 12:16:22;;;;;;;13.95;7.30;;;22.30;99.90;;;;;;5030226;28;20060;-64
2023/02/16 12:19:24;;;;;;;15.27;8.03;;;22.30;99.90;;;;;;5031128;28;20056;-63
2023/02/16 12:21:55;;;;;;;15.13;7.40;;;22.40;99.90;;;;;;5027106;28;20117;-63
2023/02/16 12:24:41;;;;;;;17.85;8.25;;;22.40;99.90;;;;;;5031236;28;20076;-62
2023/02/16 12:27:24;;;;;;;14.45;7.22;;;22.40;99.90;;;;;;4974178;28;20495;-61
2023/02/16 12:30:11;;;;;;;10.20;5.78;;;22.50;99.90;;;;;;5027153;28;20034;-66
2023/02/16 12:32:58;;;;;;;13.55;5.53;;;22.50;99.90;;;;;;5025843;28;20044;-60
2023/02/16 12:35:38;;;;;;;12.35;5.65;;;22.60;99.90;;;;;;5024751;28;20037;-63
2023/02/16 12:38:18;;;;;;;12.18;5.85;;;22.60;99.90;;;;;;5025769;28;20034;-64
2023/02/16 12:40:53;;;;;;;9.07;5.60;;;22.60;99.90;;;;;;5024765;28;20063;-65
2023/02/16 12:43:38;;;;;;;13.20;5.63;;;22.70;99.90;;;;;;5030430;28;20049;-67
2023/02/16 12:46:24;;;;;;;18.42;5.68;;;22.70;99.90;;;;;;5024782;28;20033;-63
2023/02/16 12:49:01;;;;;;;12.25;5.53;;;22.70;99.90;;;;;;5016741;28;20056;-65
2023/02/16 12:51:37;;;;;;;14.25;5.72;;;22.70;99.90;;;;;;5023187;28;20085;-65
2023/02/16 12:54:29;;;;;;;13.18;5.50;;;22.70;99.90;;;;;;5017403;28;20037;-67
2023/02/16 12:57:19;;;;;;;10.82;5.25;;;22.70;99.90;;;;;;5016725;28;20026;-64
2023/02/16 13:00:17;;;;;;;15.02;5.72;;;22.70;99.90;;;;;;5016763;28;20037;-60
2023/02/16 13:02:51;;;;;;;13.63;5.90;;;22.70;99.90;;;;;;5019453;28;20050;-67
2023/02/16 13:05:21;;;;;;;12.50;6.10;;;22.80;99.90;;;;;;5025987;28;20136;-63
2023/02/16 13:08:09;;;;;;;19.50;5.93;;;22.80;99.90;;;;;;5011069;28;20030;-62
2023/02/16 13:11:08;;;;;;;15.63;5.45;;;22.80;99.90;;;;;;5019741;28;20490;-64
2023/02/16 13:13:34;;;;;;;18.52;9.25;;;22.80;99.90;;;;;;4994551;28;20144;-64
2023/02/16 13:16:12;;;;;;;21.38;11.73;;;22.80;99.90;;;;;;5023729;28;20517;-62
2023/02/16 13:18:43;;;;;;;21.83;11.15;;;22.80;99.90;;;;;;5025729;28;20033;-62
2023/02/16 13:21:16;;;;;;;35.20;13.02;;;22.90;99.90;;;;;;5008749;28;20364;-67
2023/02/16 13:24:12;;;;;;;49.35;18.20;;;22.90;99.90;;;;;;5021924;28;20057;-66
2023/02/16 13:26:40;;;;;;;38.38;16.45;;;22.90;99.90;;;;;;4998416;28;20033;-58
2023/02/16 13:29:09;;;;;;;26.02;12.75;;;22.90;99.90;;;;;;5022773;28;20076;-63
2023/02/16 13:32:07;;;;;;;30.98;10.93;;;23.00;99.90;;;;;;5022483;28;20028;-67
2023/02/16 13:34:59;;;;;;;29.00;10.75;;;23.00;99.90;;;;;;5014606;28;20029;-59
2023/02/16 13:37:43;;;;;;;19.95;8.80;;;23.00;99.90;;;;;;5003663;28;20125;-64